Flight Track Log - Related Links

Times and Time Zones

All times are in EDT time to prevent confusion due to time zone crossing. See the DAL2369 flight status page for this flight to view local times or setup timezone preferences in your user account.

Time Position Orientation Groundspeed Altitude Reporting Facility
EDT Latitude Longitude Course Direction KTS MPH feet Rate Location/Type
Thu 03:41:12 PM 28.3870 -81.2920 154° Southeast 195 224 1,500  Level FlightAware ADS-B
Thu 03:41:37 PM 28.3670 -81.2780 148° Southeast 229 264 2,100 1,429 Climbing FlightAware ADS-B
Thu 03:41:54 PM 28.3550 -81.2570 123° Southeast 263 303 2,500 2,087 Climbing FlightAware ADS-B
Thu 03:42:23 PM 28.3440 -81.2170 107° East 289 333 3,700 2,842 Climbing FlightAware ADS-B
Thu 03:42:51 PM 28.3470 -81.1720 86° East 296 341 5,200 3,000 Climbing FlightAware ADS-B
Thu 03:43:03 PM 28.3500 -81.1560 78° East 295 339 5,700 2,500 Climbing FlightAware ADS-B
Thu 03:43:15 PM 28.3600 -81.1380 58° Northeast 295 339 6,200 2,667 Climbing FlightAware ADS-B
Thu 03:43:39 PM 28.3850 -81.1230 28° Northeast 277 319 7,300 3,000 Climbing FlightAware ADS-B
Thu 03:43:57 PM 28.4090 -81.1220 North 270 311 8,300 2,870 Climbing FlightAware ADS-B
Thu 03:44:25 PM 28.4410 -81.1310 346° North 269 310 9,500 2,381 Climbing FlightAware ADS-B
Thu 03:45:00 PM 28.4860 -81.1490 341° North 295 339 10,800 1,582 Climbing FlightAware ADS-B
Thu 03:45:56 PM 28.5620 -81.1810 340° North 348 400 11,900 1,378 Climbing FlightAware ADS-B
Thu 03:47:15 PM 28.6220 -81.2190 331° Northwest 353 406 13,900 1,742 Climbing FlightAware ADS-B
Thu 03:48:00 PM 28.6260 -81.2210 336° Northwest 353 406 15,500 1,185 Climbing FlightAware ADS-B
Thu 03:48:36 PM 28.6690 -81.2490 330° Northwest 353 406 15,500  Level FlightAware ADS-B
Thu 03:49:24 PM 28.7280 -81.2850 332° Northwest 353 406 15,500  Level FlightAware ADS-B
Thu 03:50:01 PM 28.7720 -81.3140 330° Northwest 353 406 15,500  Level FlightAware ADS-B
Thu 03:50:49 PM 28.8310 -81.3510 331° Northwest 353 406 15,500  Level FlightAware ADS-B
Thu 03:51:25 PM 28.8740 -81.3780 331° Northwest 353 406 15,500 5,852 Level FlightAware ADS-B
Thu 03:52:10 PM 29.1919 -81.4750 331° Northwest 412 474 23,400 5,314 Climbing Jacksonville Center
Thu 03:53:10 PM 29.2947 -81.5164 341° North 417 480 24,800 1,266 Climbing Jacksonville Center
Thu 03:58:34 PM 29.9520 -81.7900 341° North 451 519 31,500 1,115 Climbing FlightAware ADS-B
Thu 03:59:16 PM 30.0200 -81.8190 340° North 451 519 31,600 1,172 Climbing FlightAware ADS-B
Thu 04:00:01 PM 30.1220 -81.8610 340° North 459 528 33,200 1,011 Climbing FlightAware ADS-B
Thu 04:00:51 PM 30.2070 -81.8970 340° North 459 528 33,200 738 Level FlightAware ADS-B
Thu 04:02:11 PM 30.1710 -81.8560 135° Southeast 467 537 34,800 821 Climbing FlightAware ADS-B
Thu 04:02:48 PM 30.2390 -81.8490 North 467 537 34,800 141 Level FlightAware ADS-B
Thu 04:03:36 PM 30.1910 -81.8600 191° South 465 535 35,000 143 Climbing FlightAware ADS-B
Thu 04:04:12 PM 30.2570 -81.8580 North 465 535 35,000  Level FlightAware ADS-B
Thu 04:04:49 PM 30.3250 -81.8570 North 465 535 35,000  Level FlightAware ADS-B
Thu 04:05:37 PM 30.4120 -81.8550 North 465 535 35,000  Level FlightAware ADS-B
Thu 04:06:14 PM 30.4800 -81.8540 North 465 535 35,000  Level FlightAware ADS-B
Thu 04:06:51 PM 30.5480 -81.8520 North 465 535 35,000  Level FlightAware ADS-B
Thu 04:07:28 PM 30.6150 -81.8510 North 465 535 35,000  Level FlightAware ADS-B
Thu 04:08:28 PM 30.7250 -81.8490 North 465 535 35,000  Level FlightAware ADS-B
Thu 04:09:10 PM 31.2417 -82.1903 North 455 524 35,000  Level Jacksonville Center
Thu 04:10:10 PM 31.3569 -82.2456 338° Northwest 455 524 35,000  Level Jacksonville Center
Thu 04:11:10 PM 31.4719 -82.3006 338° Northwest 443 510 35,000  Level Jacksonville Center
Thu 04:12:54 PM 31.6689 -82.3942 338° Northwest 424 488 35,000  Level Atlanta Center
Thu 04:13:54 PM 31.7822 -82.4483 338° Northwest 424 488 35,000 -311 Level Atlanta Center
Thu 04:19:20 PM 32.4040 -82.7630 338° Northwest 433 498 33,000 -329 Descending FlightAware ADS-B
Thu 04:19:59 PM 32.4650 -82.7940 337° Northwest 433 498 33,000  Level FlightAware ADS-B
Thu 04:20:35 PM 32.5210 -82.8220 337° Northwest 433 498 33,000  Level FlightAware ADS-B
Thu 04:21:11 PM 32.5780 -82.8510 337° Northwest 433 498 33,000  Level FlightAware ADS-B
Thu 04:22:00 PM 32.6540 -82.8890 337° Northwest 433 498 33,000 -3,241 Level FlightAware ADS-B
Thu 04:22:38 PM 32.7060 -83.0430 292° West 421 484 28,300 -3,824 Descending FlightAware ADS-B
Thu 04:23:31 PM 32.7650 -83.1320 308° West 414 476 27,200 -2,438 Descending FlightAware ADS-B
Thu 04:24:14 PM 32.8220 -83.2150 309° West 394 453 24,400 -3,185 Descending FlightAware ADS-B
Thu 04:24:52 PM 32.8640 -83.2770 309° West 383 441 22,900 -2,341 Descending FlightAware ADS-B
Thu 04:25:36 PM 32.9110 -83.3470 309° West 374 430 21,200 -2,286 Descending FlightAware ADS-B
Thu 04:26:16 PM 32.9550 -83.4120 309° West 379 436 19,700 -2,357 Descending FlightAware ADS-B
Thu 04:27:00 PM 33.0050 -83.4880 308° West 389 448 17,900 -1,333 Descending FlightAware ADS-B
Thu 04:27:37 PM 33.0400 -83.5410 308° West 389 448 17,900  Level FlightAware ADS-B
Thu 04:28:23 PM 33.0830 -83.6070 308° West 389 448 17,900 -3,470 Level FlightAware ADS-B
Thu 04:29:00 PM 33.1360 -83.6840 309° West 374 430 13,100 -4,400 Descending FlightAware ADS-B
Thu 04:29:38 PM 33.1750 -83.7420 309° West 347 399 12,400 -741 Descending FlightAware ADS-B
Thu 04:30:21 PM 33.2150 -83.8010 309° West 310 357 12,100 -205 Descending FlightAware ADS-B
Thu 04:31:06 PM 33.2510 -83.8550 309° West 310 357 12,100  Level FlightAware ADS-B
Thu 04:31:33 PM 33.2710 -83.8860 308° West 310 357 12,100 -2,273 Level FlightAware ADS-B
Thu 04:32:12 PM 33.3090 -83.9420 309° West 287 330 9,600 -2,829 Descending FlightAware ADS-B
Thu 04:32:43 PM 33.3350 -83.9810 309° West 286 329 8,800 -1,400 Descending FlightAware ADS-B
Thu 04:33:12 PM 33.3580 -84.0160 308° West 284 327 8,200 -1,091 Descending FlightAware ADS-B
Thu 04:33:38 PM 33.3840 -84.0430 319° Northwest 279 321 7,800 -1,286 Descending FlightAware ADS-B
Thu 04:34:08 PM 33.4190 -84.0620 336° Northwest 274 315 7,000 -1,862 Descending FlightAware ADS-B
Thu 04:34:36 PM 33.4530 -84.0800 336° Northwest 274 315 6,000 -1,180 Descending FlightAware ADS-B
Thu 04:35:09 PM 33.4850 -84.0970 336° Northwest 274 315 5,800 -1,393 Descending FlightAware ADS-B
Thu 04:35:32 PM 33.5180 -84.1120 339° North 272 313 4,700 -2,043 Descending FlightAware ADS-B
Thu 04:35:56 PM 33.5460 -84.1260 337° Northwest 270 311 4,200 -1,500 Descending FlightAware ADS-B
Thu 04:36:12 PM 33.5640 -84.1350 337° Northwest 270 311 3,700 -1,500 Descending FlightAware ADS-B
Thu 04:36:40 PM 33.5970 -84.1520 337° Northwest 265 305 3,100 -1,050 Descending FlightAware ADS-B
Thu 04:36:52 PM 33.6090 -84.1610 328° Northwest 258 297 3,000 -250 Descending FlightAware ADS-B
Thu 04:37:04 PM 33.6180 -84.1740 310° West 243 280 3,000  Level FlightAware ADS-B
Thu 04:37:36 PM 33.6340 -84.2110 297° West 224 258 3,000  Level FlightAware ADS-B
Thu 04:38:04 PM 33.6460 -84.2420 295° West 216 249 3,000  Level FlightAware ADS-B
Thu 04:38:30 PM 33.6480 -84.2710 275° West 191 220 3,000  Level FlightAware ADS-B
Thu 04:38:53 PM 33.6480 -84.2930 270° West 186 214 3,000 -316 Level FlightAware ADS-B
Thu 04:39:08 PM 33.6480 -84.3100 270° West 191 220 2,800 -894 Descending FlightAware ADS-B
Thu 04:39:40 PM 33.6480 -84.3440 270° West 183 211 2,300 -800 Descending FlightAware ADS-B
Thu 04:40:08 PM 33.6480 -84.3710 270° West 157 181 2,000 -750 Descending FlightAware ADS-B
Thu 04:40:36 PM 33.6480 -84.3930 270° West 141 162 1,600 -778 Descending FlightAware ADS-B
Thu 04:41:02 PM 33.6480 -84.4130 270° West 136 157 1,300 -720 Descending FlightAware ADS-B
Thu 04:41:26 PM 33.6480 -84.4320 270° West 138 159 1,000 -750 Descending FlightAware ADS-B
Thu 04:41:56 PM 33.6480 -84.4500 270° West 58 67 -2,000 Descending FlightAware ADS-B
Thu 04:42:24 PM 33.6490 -84.4550 284° West 21 24  Level FlightAware ADS-B
Thu 04:42:30 PM 33.6490 -84.4560 270° West 19 22  Level FlightAware ADS-B
Thu 04:43:39 PM 33.6500 -84.4610 284° West 15 17  Level FlightAware ADS-B

Login

Don't have an account? Register now (free) for customized features, flight alerts, and more!